sensor_id;sensor_type;location;lat;lon;timestamp;temperature;humidity
70947;DHT22;58605;48.700;8.760;2022-12-13T00:00:40;-7.70;99.90
70947;DHT22;58605;48.700;8.760;2022-12-13T00:03:06;-7.70;99.90
70947;DHT22;58605;48.700;8.760;2022-12-13T00:05:33;-7.70;99.90
70947;DHT22;58605;48.700;8.760;2022-12-13T00:08:00;-7.70;99.90
70947;DHT22;58605;48.700;8.760;2022-12-13T00:10:26;-7.70;99.90
70947;DHT22;58605;48.700;8.760;2022-12-13T00:12:52;-7.70;99.90
70947;DHT22;58605;48.700;8.760;2022-12-13T00:15:19;-7.70;99.90
70947;DHT22;58605;48.700;8.760;2022-12-13T00:17:45;-7.80;99.90
70947;DHT22;58605;48.700;8.760;2022-12-13T00:20:11;-7.80;99.90
70947;DHT22;58605;48.700;8.760;2022-12-13T00:22:38;-7.80;99.90
70947;DHT22;58605;48.700;8.760;2022-12-13T00:25:04;-7.90;99.90
70947;DHT22;58605;48.700;8.760;2022-12-13T00:27:30;-7.90;99.90
70947;DHT22;58605;48.700;8.760;2022-12-13T00:29:56;-7.90;99.90
70947;DHT22;58605;48.700;8.760;2022-12-13T00:32:22;-8.00;99.90
70947;DHT22;58605;48.700;8.760;2022-12-13T00:34:48;-8.00;99.90
70947;DHT22;58605;48.700;8.760;2022-12-13T00:37:14;-8.00;99.90
70947;DHT22;58605;48.700;8.760;2022-12-13T00:39:41;-8.00;99.90
70947;DHT22;58605;48.700;8.760;2022-12-13T00:42:07;-8.00;99.90
70947;DHT22;58605;48.700;8.760;2022-12-13T00:44:33;-8.00;99.90
70947;DHT22;58605;48.700;8.760;2022-12-13T00:46:59;-7.90;99.90
70947;DHT22;58605;48.700;8.760;2022-12-13T00:49:25;-7.80;99.90
70947;DHT22;58605;48.700;8.760;2022-12-13T00:51:51;-7.80;99.90
70947;DHT22;58605;48.700;8.760;2022-12-13T00:54:17;-7.80;99.90
70947;DHT22;58605;48.700;8.760;2022-12-13T00:56:44;-7.80;99.90
70947;DHT22;58605;48.700;8.760;2022-12-13T00:59:12;-7.90;99.90
70947;DHT22;58605;48.700;8.760;2022-12-13T01:01:39;-7.90;99.90
70947;DHT22;58605;48.700;8.760;2022-12-13T01:04:06;-8.00;99.90
70947;DHT22;58605;48.700;8.760;2022-12-13T01:06:34;-8.00;99.90
70947;DHT22;58605;48.700;8.760;2022-12-13T01:09:01;-8.10;99.90
70947;DHT22;58605;48.700;8.760;2022-12-13T01:11:27;-8.10;99.90
70947;DHT22;58605;48.700;8.760;2022-12-13T01:13:55;-8.10;99.90
70947;DHT22;58605;48.700;8.760;2022-12-13T01:16:21;-8.20;99.90
70947;DHT22;58605;48.700;8.760;2022-12-13T01:18:46;-8.40;99.90
70947;DHT22;58605;48.700;8.760;2022-12-13T01:21:14;-8.30;99.90
70947;DHT22;58605;48.700;8.760;2022-12-13T01:23:41;-8.20;99.90
70947;DHT22;58605;48.700;8.760;2022-12-13T01:26:09;-8.20;99.90
70947;DHT22;58605;48.700;8.760;2022-12-13T01:28:35;-8.20;99.90
70947;DHT22;58605;48.700;8.760;2022-12-13T01:31:05;-8.10;99.90
70947;DHT22;58605;48.700;8.760;2022-12-13T01:33:31;-8.10;99.90
70947;DHT22;58605;48.700;8.760;2022-12-13T01:35:59;-8.20;99.90
70947;DHT22;58605;48.700;8.760;2022-12-13T01:38:25;-8.20;99.90
70947;DHT22;58605;48.700;8.760;2022-12-13T01:40:53;-8.20;99.90
70947;DHT22;58605;48.700;8.760;2022-12-13T01:43:24;-8.30;99.90
70947;DHT22;58605;48.700;8.760;2022-12-13T01:45:50;-8.20;99.90
70947;DHT22;58605;48.700;8.760;2022-12-13T01:48:21;-8.20;99.90
70947;DHT22;58605;48.700;8.760;2022-12-13T01:50:51;-8.20;99.90
70947;DHT22;58605;48.700;8.760;2022-12-13T01:53:21;-8.20;99.90
70947;DHT22;58605;48.700;8.760;2022-12-13T01:55:51;-8.30;99.90
70947;DHT22;58605;48.700;8.760;2022-12-13T01:58:19;-8.30;99.90
70947;DHT22;58605;48.700;8.760;2022-12-13T02:00:47;-8.40;99.90
70947;DHT22;58605;48.700;8.760;2022-12-13T02:03:13;-8.30;99.90
70947;DHT22;58605;48.700;8.760;2022-12-13T02:05:46;-8.30;99.90
70947;DHT22;58605;48.700;8.760;2022-12-13T02:08:15;-8.30;99.90
70947;DHT22;58605;48.700;8.760;2022-12-13T02:10:42;-8.30;99.90
70947;DHT22;58605;48.700;8.760;2022-12-13T02:13:08;-8.30;99.90
70947;DHT22;58605;48.700;8.760;2022-12-13T02:15:41;-8.30;99.90
70947;DHT22;58605;48.700;8.760;2022-12-13T02:18:21;-8.30;99.90
70947;DHT22;58605;48.700;8.760;2022-12-13T02:21:02;-8.30;99.90
70947;DHT22;58605;48.700;8.760;2022-12-13T02:30:20;-8.50;99.90
70947;DHT22;58605;48.700;8.760;2022-12-13T02:33:13;-8.50;99.90
70947;DHT22;58605;48.700;8.760;2022-12-13T02:35:48;-8.60;99.90
70947;DHT22;58605;48.700;8.760;2022-12-13T02:38:20;-8.50;99.90
70947;DHT22;58605;48.700;8.760;2022-12-13T02:40:53;-8.50;99.90
70947;DHT22;58605;48.700;8.760;2022-12-13T02:43:24;-8.50;99.90
70947;DHT22;58605;48.700;8.760;2022-12-13T02:45:56;-8.50;99.90
70947;DHT22;58605;48.700;8.760;2022-12-13T02:48:27;-8.40;99.90
70947;DHT22;58605;48.700;8.760;2022-12-13T02:50:54;-8.40;99.90
70947;DHT22;58605;48.700;8.760;2022-12-13T02:53:22;-8.40;99.90
70947;DHT22;58605;48.700;8.760;2022-12-13T02:55:49;-8.50;99.90
70947;DHT22;58605;48.700;8.760;2022-12-13T02:58:18;-8.50;99.90
70947;DHT22;58605;48.700;8.760;2022-12-13T03:00:55;-8.50;99.90
70947;DHT22;58605;48.700;8.760;2022-12-13T03:03:29;-8.50;99.90
70947;DHT22;58605;48.700;8.760;2022-12-13T03:06:06;-8.60;99.90
70947;DHT22;58605;48.700;8.760;2022-12-13T03:09:02;-8.60;99.90
70947;DHT22;58605;48.700;8.760;2022-12-13T03:11:44;-8.60;99.90
70947;DHT22;58605;48.700;8.760;2022-12-13T03:14:36;-8.70;99.90
70947;DHT22;58605;48.700;8.760;2022-12-13T03:17:06;-8.70;99.90
70947;DHT22;58605;48.700;8.760;2022-12-13T03:19:34;-8.70;99.90
70947;DHT22;58605;48.700;8.760;2022-12-13T03:22:00;-8.80;99.90
70947;DHT22;58605;48.700;8.760;2022-12-13T03:24:30;-8.70;99.90
70947;DHT22;58605;48.700;8.760;2022-12-13T03:26:56;-8.70;99.90
70947;DHT22;58605;48.700;8.760;2022-12-13T03:29:22;-8.60;99.90
70947;DHT22;58605;48.700;8.760;2022-12-13T03:31:47;-8.70;99.90
70947;DHT22;58605;48.700;8.760;2022-12-13T03:34:15;-8.70;99.90
70947;DHT22;58605;48.700;8.760;2022-12-13T03:36:41;-8.70;99.90
70947;DHT22;58605;48.700;8.760;2022-12-13T03:39:07;-8.70;99.90
70947;DHT22;58605;48.700;8.760;2022-12-13T03:41:33;-8.70;99.90
70947;DHT22;58605;48.700;8.760;2022-12-13T03:44:04;-8.70;99.90
70947;DHT22;58605;48.700;8.760;2022-12-13T03:46:30;-8.80;99.90
70947;DHT22;58605;48.700;8.760;2022-12-13T03:48:56;-8.80;99.90
70947;DHT22;58605;48.700;8.760;2022-12-13T03:51:23;-8.80;99.90
70947;DHT22;58605;48.700;8.760;2022-12-13T03:53:49;-8.90;99.90
70947;DHT22;58605;48.700;8.760;2022-12-13T03:56:15;-8.90;99.90
70947;DHT22;58605;48.700;8.760;2022-12-13T03:58:41;-8.90;99.90
70947;DHT22;58605;48.700;8.760;2022-12-13T04:01:09;-8.90;99.90
70947;DHT22;58605;48.700;8.760;2022-12-13T04:03:37;-8.90;99.90
70947;DHT22;58605;48.700;8.760;2022-12-13T04:06:04;-8.90;99.90
70947;DHT22;58605;48.700;8.760;2022-12-13T04:08:32;-8.90;99.90
70947;DHT22;58605;48.700;8.760;2022-12-13T04:10:58;-8.90;99.90
70947;DHT22;58605;48.700;8.760;2022-12-13T04:13:24;-8.90;99.90
70947;DHT22;58605;48.700;8.760;2022-12-13T04:15:59;-8.90;99.90
70947;DHT22;58605;48.700;8.760;2022-12-13T04:18:25;-8.90;99.90
70947;DHT22;58605;48.700;8.760;2022-12-13T04:20:51;-8.90;99.90
70947;DHT22;58605;48.700;8.760;2022-12-13T04:23:17;-8.90;99.90
70947;DHT22;58605;48.700;8.760;2022-12-13T04:25:44;-8.80;99.90
70947;DHT22;58605;48.700;8.760;2022-12-13T04:28:10;-8.90;99.90
70947;DHT22;58605;48.700;8.760;2022-12-13T04:30:36;-9.00;99.90
70947;DHT22;58605;48.700;8.760;2022-12-13T04:33:03;-8.90;99.90
70947;DHT22;58605;48.700;8.760;2022-12-13T04:35:29;-8.90;99.90
70947;DHT22;58605;48.700;8.760;2022-12-13T04:37:55;-9.00;99.90
70947;DHT22;58605;48.700;8.760;2022-12-13T04:40:22;-8.90;99.90
70947;DHT22;58605;48.700;8.760;2022-12-13T04:42:49;-8.90;99.90
70947;DHT22;58605;48.700;8.760;2022-12-13T04:45:16;-8.90;99.90
70947;DHT22;58605;48.700;8.760;2022-12-13T04:47:42;-8.90;99.90
70947;DHT22;58605;48.700;8.760;2022-12-13T04:50:09;-8.90;99.90
70947;DHT22;58605;48.700;8.760;2022-12-13T04:52:35;-8.80;99.90
70947;DHT22;58605;48.700;8.760;2022-12-13T04:55:02;-8.80;99.90
70947;DHT22;58605;48.700;8.760;2022-12-13T04:57:28;-8.90;99.90
70947;DHT22;58605;48.700;8.760;2022-12-13T04:59:55;-8.90;99.90
70947;DHT22;58605;48.700;8.760;2022-12-13T05:02:21;-8.90;99.90
70947;DHT22;58605;48.700;8.760;2022-12-13T05:04:47;-8.90;99.90
70947;DHT22;58605;48.700;8.760;2022-12-13T05:07:13;-9.00;99.90
70947;DHT22;58605;48.700;8.760;2022-12-13T05:09:39;-8.90;99.90
70947;DHT22;58605;48.700;8.760;2022-12-13T05:12:06;-9.00;99.90
70947;DHT22;58605;48.700;8.760;2022-12-13T05:14:32;-9.00;99.90
70947;DHT22;58605;48.700;8.760;2022-12-13T05:17:00;-8.90;99.90
70947;DHT22;58605;48.700;8.760;2022-12-13T05:19:26;-9.00;99.90
70947;DHT22;58605;48.700;8.760;2022-12-13T05:21:52;-9.00;99.90
70947;DHT22;58605;48.700;8.760;2022-12-13T05:24:18;-9.00;99.90
70947;DHT22;58605;48.700;8.760;2022-12-13T05:26:44;-9.00;99.90
70947;DHT22;58605;48.700;8.760;2022-12-13T05:29:10;-9.00;99.90
70947;DHT22;58605;48.700;8.760;2022-12-13T05:31:36;-9.00;99.90
70947;DHT22;58605;48.700;8.760;2022-12-13T05:34:04;-8.90;99.90
70947;DHT22;58605;48.700;8.760;2022-12-13T05:36:30;-9.00;99.90
70947;DHT22;58605;48.700;8.760;2022-12-13T05:38:56;-9.00;99.90
70947;DHT22;58605;48.700;8.760;2022-12-13T05:41:23;-9.00;99.90
70947;DHT22;58605;48.700;8.760;2022-12-13T05:43:49;-9.00;99.90
70947;DHT22;58605;48.700;8.760;2022-12-13T05:46:15;-9.00;99.90
70947;DHT22;58605;48.700;8.760;2022-12-13T05:48:41;-9.00;99.90
70947;DHT22;58605;48.700;8.760;2022-12-13T05:51:09;-9.00;99.90
70947;DHT22;58605;48.700;8.760;2022-12-13T05:53:35;-9.00;99.90
70947;DHT22;58605;48.700;8.760;2022-12-13T05:56:01;-9.00;99.90
70947;DHT22;58605;48.700;8.760;2022-12-13T05:58:27;-9.00;99.90
70947;DHT22;58605;48.700;8.760;2022-12-13T06:00:53;-9.00;99.90
70947;DHT22;58605;48.700;8.760;2022-12-13T06:03:19;-8.90;99.90
70947;DHT22;58605;48.700;8.760;2022-12-13T06:05:46;-9.00;99.90
70947;DHT22;58605;48.700;8.760;2022-12-13T06:08:13;-9.00;99.90
70947;DHT22;58605;48.700;8.760;2022-12-13T06:10:39;-9.10;99.70
70947;DHT22;58605;48.700;8.760;2022-12-13T06:13:05;-9.10;99.90
70947;DHT22;58605;48.700;8.760;2022-12-13T06:15:31;-9.10;99.90
70947;DHT22;58605;48.700;8.760;2022-12-13T06:17:58;-9.10;99.90
70947;DHT22;58605;48.700;8.760;2022-12-13T06:20:24;-9.20;99.90
70947;DHT22;58605;48.700;8.760;2022-12-13T06:22:53;-9.10;99.90
70947;DHT22;58605;48.700;8.760;2022-12-13T06:25:20;-9.20;99.90
70947;DHT22;58605;48.700;8.760;2022-12-13T06:27:46;-9.20;99.90
70947;DHT22;58605;48.700;8.760;2022-12-13T06:30:12;-9.20;99.90
70947;DHT22;58605;48.700;8.760;2022-12-13T06:32:38;-9.30;99.90
70947;DHT22;58605;48.700;8.760;2022-12-13T06:35:04;-9.20;99.90
70947;DHT22;58605;48.700;8.760;2022-12-13T06:37:30;-9.20;99.90
70947;DHT22;58605;48.700;8.760;2022-12-13T06:39:56;-9.20;99.90
70947;DHT22;58605;48.700;8.760;2022-12-13T06:42:24;-9.20;99.90
70947;DHT22;58605;48.700;8.760;2022-12-13T06:44:50;-9.10;99.90
70947;DHT22;58605;48.700;8.760;2022-12-13T06:47:17;-9.10;99.90
70947;DHT22;58605;48.700;8.760;2022-12-13T06:49:43;-9.10;99.90
70947;DHT22;58605;48.700;8.760;2022-12-13T06:52:09;-9.10;99.90
70947;DHT22;58605;48.700;8.760;2022-12-13T06:54:37;-9.20;99.90
70947;DHT22;58605;48.700;8.760;2022-12-13T06:57:03;-9.30;99.90
70947;DHT22;58605;48.700;8.760;2022-12-13T06:59:30;-9.50;99.90
70947;DHT22;58605;48.700;8.760;2022-12-13T07:01:56;-9.50;99.90
70947;DHT22;58605;48.700;8.760;2022-12-13T07:04:22;-9.30;99.90
70947;DHT22;58605;48.700;8.760;2022-12-13T07:06:48;-9.30;99.90
70947;DHT22;58605;48.700;8.760;2022-12-13T07:09:14;-9.20;99.90
70947;DHT22;58605;48.700;8.760;2022-12-13T07:11:40;-9.20;99.90
70947;DHT22;58605;48.700;8.760;2022-12-13T07:14:06;-9.10;99.90
70947;DHT22;58605;48.700;8.760;2022-12-13T07:16:33;-9.10;99.90
70947;DHT22;58605;48.700;8.760;2022-12-13T07:19:00;-9.20;99.90
70947;DHT22;58605;48.700;8.760;2022-12-13T07:21:28;-9.10;99.90
70947;DHT22;58605;48.700;8.760;2022-12-13T07:23:54;-9.10;99.90
70947;DHT22;58605;48.700;8.760;2022-12-13T07:26:20;-9.00;99.90
70947;DHT22;58605;48.700;8.760;2022-12-13T07:28:46;-9.00;99.90
70947;DHT22;58605;48.700;8.760;2022-12-13T07:31:13;-8.90;99.90
70947;DHT22;58605;48.700;8.760;2022-12-13T07:33:40;-8.90;99.90
70947;DHT22;58605;48.700;8.760;2022-12-13T07:36:09;-8.90;99.90
70947;DHT22;58605;48.700;8.760;2022-12-13T07:38:36;-8.90;99.90
70947;DHT22;58605;48.700;8.760;2022-12-13T07:41:03;-9.00;99.90
70947;DHT22;58605;48.700;8.760;2022-12-13T07:43:30;-8.90;99.90
70947;DHT22;58605;48.700;8.760;2022-12-13T07:45:57;-9.00;99.90
70947;DHT22;58605;48.700;8.760;2022-12-13T07:48:23;-8.90;99.90
70947;DHT22;58605;48.700;8.760;2022-12-13T07:50:51;-8.80;99.90
70947;DHT22;58605;48.700;8.760;2022-12-13T07:53:20;-8.70;99.90
70947;DHT22;58605;48.700;8.760;2022-12-13T07:55:46;-8.80;99.90
70947;DHT22;58605;48.700;8.760;2022-12-13T07:58:13;-8.90;99.90
70947;DHT22;58605;48.700;8.760;2022-12-13T08:00:41;-9.00;99.90
70947;DHT22;58605;48.700;8.760;2022-12-13T08:03:07;-9.00;99.90
70947;DHT22;58605;48.700;8.760;2022-12-13T08:05:33;-8.90;99.90
70947;DHT22;58605;48.700;8.760;2022-12-13T08:08:01;-8.90;99.90
70947;DHT22;58605;48.700;8.760;2022-12-13T08:10:27;-8.80;99.90
70947;DHT22;58605;48.700;8.760;2022-12-13T08:12:54;-8.70;99.90
70947;DHT22;58605;48.700;8.760;2022-12-13T08:15:20;-8.70;99.90
70947;DHT22;58605;48.700;8.760;2022-12-13T08:17:46;-8.60;99.90
70947;DHT22;58605;48.700;8.760;2022-12-13T08:20:12;-8.50;99.90
70947;DHT22;58605;48.700;8.760;2022-12-13T08:22:38;-8.50;99.90
70947;DHT22;58605;48.700;8.760;2022-12-13T08:25:07;-8.60;99.90
70947;DHT22;58605;48.700;8.760;2022-12-13T08:27:33;-8.50;99.90
70947;DHT22;58605;48.700;8.760;2022-12-13T08:29:59;-8.50;99.90
70947;DHT22;58605;48.700;8.760;2022-12-13T08:32:25;-8.40;99.90
70947;DHT22;58605;48.700;8.760;2022-12-13T08:34:51;-8.30;99.90
70947;DHT22;58605;48.700;8.760;2022-12-13T08:37:17;-8.30;99.90
70947;DHT22;58605;48.700;8.760;2022-12-13T08:39:44;-8.30;99.90
70947;DHT22;58605;48.700;8.760;2022-12-13T08:42:12;-8.30;99.90
70947;DHT22;58605;48.700;8.760;2022-12-13T08:44:39;-8.20;99.90
70947;DHT22;58605;48.700;8.760;2022-12-13T08:47:05;-8.20;99.90
70947;DHT22;58605;48.700;8.760;2022-12-13T08:49:31;-8.10;99.90
70947;DHT22;58605;48.700;8.760;2022-12-13T08:51:57;-8.00;99.90
70947;DHT22;58605;48.700;8.760;2022-12-13T08:54:24;-7.90;99.90
70947;DHT22;58605;48.700;8.760;2022-12-13T08:56:50;-7.90;99.90
70947;DHT22;58605;48.700;8.760;2022-12-13T08:59:18;-7.90;99.90
70947;DHT22;58605;48.700;8.760;2022-12-13T09:01:44;-7.80;99.90
70947;DHT22;58605;48.700;8.760;2022-12-13T09:04:11;-7.80;99.90
70947;DHT22;58605;48.700;8.760;2022-12-13T09:06:37;-7.70;99.90
70947;DHT22;58605;48.700;8.760;2022-12-13T09:09:03;-7.70;99.90
70947;DHT22;58605;48.700;8.760;2022-12-13T09:11:29;-7.60;99.90
70947;DHT22;58605;48.700;8.760;2022-12-13T09:13:55;-7.50;99.90
70947;DHT22;58605;48.700;8.760;2022-12-13T09:16:23;-7.50;99.90
70947;DHT22;58605;48.700;8.760;2022-12-13T09:18:50;-7.40;99.90
70947;DHT22;58605;48.700;8.760;2022-12-13T09:21:16;-7.30;99.90
70947;DHT22;58605;48.700;8.760;2022-12-13T09:23:43;-7.30;99.90
70947;DHT22;58605;48.700;8.760;2022-12-13T09:26:11;-7.20;99.90
70947;DHT22;58605;48.700;8.760;2022-12-13T09:28:37;-7.20;99.90
70947;DHT22;58605;48.700;8.760;2022-12-13T09:31:11;-7.10;99.90
70947;DHT22;58605;48.700;8.760;2022-12-13T09:33:39;-6.90;99.90
70947;DHT22;58605;48.700;8.760;2022-12-13T09:36:07;-6.90;99.90
70947;DHT22;58605;48.700;8.760;2022-12-13T09:38:35;-6.70;99.90
70947;DHT22;58605;48.700;8.760;2022-12-13T09:41:12;-6.60;99.90
70947;DHT22;58605;48.700;8.760;2022-12-13T09:43:39;-6.50;99.90
70947;DHT22;58605;48.700;8.760;2022-12-13T09:46:10;-6.40;99.90
70947;DHT22;58605;48.700;8.760;2022-12-13T09:48:40;-6.20;99.90
70947;DHT22;58605;48.700;8.760;2022-12-13T09:51:08;-6.20;99.90
70947;DHT22;58605;48.700;8.760;2022-12-13T09:53:34;-6.10;99.90
70947;DHT22;58605;48.700;8.760;2022-12-13T09:56:01;-6.10;99.90
70947;DHT22;58605;48.700;8.760;2022-12-13T09:58:29;-6.00;99.90
70947;DHT22;58605;48.700;8.760;2022-12-13T10:00:57;-5.80;99.90
70947;DHT22;58605;48.700;8.760;2022-12-13T10:03:30;-5.70;99.90
70947;DHT22;58605;48.700;8.760;2022-12-13T10:05:59;-5.60;99.90
70947;DHT22;58605;48.700;8.760;2022-12-13T10:08:29;-5.50;99.90
70947;DHT22;58605;48.700;8.760;2022-12-13T10:10:56;-5.40;99.90
70947;DHT22;58605;48.700;8.760;2022-12-13T10:13:26;-5.30;99.90
70947;DHT22;58605;48.700;8.760;2022-12-13T10:15:59;-5.20;99.90
70947;DHT22;58605;48.700;8.760;2022-12-13T10:18:33;-5.10;99.90
70947;DHT22;58605;48.700;8.760;2022-12-13T10:21:02;-5.00;99.90
70947;DHT22;58605;48.700;8.760;2022-12-13T10:23:29;-4.90;99.90
70947;DHT22;58605;48.700;8.760;2022-12-13T10:25:55;-4.80;99.90
70947;DHT22;58605;48.700;8.760;2022-12-13T10:28:26;-4.60;99.90
70947;DHT22;58605;48.700;8.760;2022-12-13T10:30:54;-4.50;99.90
70947;DHT22;58605;48.700;8.760;2022-12-13T10:33:23;-4.50;99.90
70947;DHT22;58605;48.700;8.760;2022-12-13T10:36:07;-4.40;99.90
70947;DHT22;58605;48.700;8.760;2022-12-13T10:38:35;-4.40;99.90
70947;DHT22;58605;48.700;8.760;2022-12-13T10:41:02;-4.40;99.90
70947;DHT22;58605;48.700;8.760;2022-12-13T10:43:28;-4.30;99.90
70947;DHT22;58605;48.700;8.760;2022-12-13T10:46:00;-4.10;99.90
70947;DHT22;58605;48.700;8.760;2022-12-13T10:48:33;-4.00;99.60
70947;DHT22;58605;48.700;8.760;2022-12-13T10:51:03;-3.90;97.90
70947;DHT22;58605;48.700;8.760;2022-12-13T10:53:32;-3.70;96.20
70947;DHT22;58605;48.700;8.760;2022-12-13T10:55:58;-3.60;95.90
70947;DHT22;58605;48.700;8.760;2022-12-13T10:58:34;-3.40;95.80
70947;DHT22;58605;48.700;8.760;2022-12-13T11:01:09;-3.20;94.80
70947;DHT22;58605;48.700;8.760;2022-12-13T11:03:36;-3.10;93.70
70947;DHT22;58605;48.700;8.760;2022-12-13T11:06:04;-3.20;92.80
70947;DHT22;58605;48.700;8.760;2022-12-13T11:08:31;-3.10;92.30
70947;DHT22;58605;48.700;8.760;2022-12-13T11:10:58;-3.10;91.90
70947;DHT22;58605;48.700;8.760;2022-12-13T11:13:33;-3.10;91.30
70947;DHT22;58605;48.700;8.760;2022-12-13T11:16:02;-3.10;90.70
70947;DHT22;58605;48.700;8.760;2022-12-13T11:18:33;-3.10;89.70
70947;DHT22;58605;48.700;8.760;2022-12-13T11:21:04;-3.10;88.30
70947;DHT22;58605;48.700;8.760;2022-12-13T11:23:34;-3.30;86.10
70947;DHT22;58605;48.700;8.760;2022-12-13T11:26:05;-3.30;86.10
70947;DHT22;58605;48.700;8.760;2022-12-13T11:28:50;-3.10;87.90
70947;DHT22;58605;48.700;8.760;2022-12-13T11:31:26;-3.10;86.70
70947;DHT22;58605;48.700;8.760;2022-12-13T11:33:59;-3.20;84.80
70947;DHT22;58605;48.700;8.760;2022-12-13T11:36:34;-3.20;85.20
70947;DHT22;58605;48.700;8.760;2022-12-13T11:39:13;-3.10;85.20
70947;DHT22;58605;48.700;8.760;2022-12-13T11:41:46;-3.10;84.40
70947;DHT22;58605;48.700;8.760;2022-12-13T11:44:16;-3.20;83.50
70947;DHT22;58605;48.700;8.760;2022-12-13T11:46:47;-3.30;83.00
70947;DHT22;58605;48.700;8.760;2022-12-13T11:49:15;-3.20;83.70
70947;DHT22;58605;48.700;8.760;2022-12-13T11:51:51;-3.10;83.50
70947;DHT22;58605;48.700;8.760;2022-12-13T11:54:24;-3.20;83.20
70947;DHT22;58605;48.700;8.760;2022-12-13T11:56:54;-3.40;82.90
70947;DHT22;58605;48.700;8.760;2022-12-13T11:59:26;-3.50;82.80
70947;DHT22;58605;48.700;8.760;2022-12-13T12:02:01;-3.40;83.70
70947;DHT22;58605;48.700;8.760;2022-12-13T12:04:34;-3.40;83.70
70947;DHT22;58605;48.700;8.760;2022-12-13T12:07:06;-3.40;83.40
70947;DHT22;58605;48.700;8.760;2022-12-13T12:09:39;-3.40;82.90
70947;DHT22;58605;48.700;8.760;2022-12-13T12:12:10;-3.40;82.30
70947;DHT22;58605;48.700;8.760;2022-12-13T12:14:42;-3.50;82.10
70947;DHT22;58605;48.700;8.760;2022-12-13T12:17:12;-3.50;81.90
70947;DHT22;58605;48.700;8.760;2022-12-13T12:19:41;-3.50;81.90
70947;DHT22;58605;48.700;8.760;2022-12-13T12:22:19;-3.60;81.80
70947;DHT22;58605;48.700;8.760;2022-12-13T12:25:01;-3.60;81.80
70947;DHT22;58605;48.700;8.760;2022-12-13T12:27:36;-3.60;82.30
70947;DHT22;58605;48.700;8.760;2022-12-13T12:30:11;-3.60;82.30
70947;DHT22;58605;48.700;8.760;2022-12-13T12:32:50;-3.60;82.20
70947;DHT22;58605;48.700;8.760;2022-12-13T12:35:50;-3.70;82.20
70947;DHT22;58605;48.700;8.760;2022-12-13T12:38:37;-3.70;82.60
70947;DHT22;58605;48.700;8.760;2022-12-13T12:41:26;-3.70;82.80
70947;DHT22;58605;48.700;8.760;2022-12-13T12:43:58;-3.60;82.90
70947;DHT22;58605;48.700;8.760;2022-12-13T12:46:38;-3.60;82.70
70947;DHT22;58605;48.700;8.760;2022-12-13T12:49:32;-3.60;82.50
70947;DHT22;58605;48.700;8.760;2022-12-13T12:52:11;-3.60;82.50
70947;DHT22;58605;48.700;8.760;2022-12-13T12:54:52;-3.60;82.10
70947;DHT22;58605;48.700;8.760;2022-12-13T12:57:34;-3.70;82.20
70947;DHT22;58605;48.700;8.760;2022-12-13T13:00:09;-3.80;82.50
70947;DHT22;58605;48.700;8.760;2022-12-13T13:02:40;-3.80;82.80
70947;DHT22;58605;48.700;8.760;2022-12-13T13:05:16;-3.90;83.10
70947;DHT22;58605;48.700;8.760;2022-12-13T13:07:48;-3.90;83.40
70947;DHT22;58605;48.700;8.760;2022-12-13T13:10:16;-3.80;83.70
70947;DHT22;58605;48.700;8.760;2022-12-13T13:12:42;-3.80;83.50
70947;DHT22;58605;48.700;8.760;2022-12-13T13:18:46;-3.80;83.60
70947;DHT22;58605;48.700;8.760;2022-12-13T13:21:41;-3.70;83.80
70947;DHT22;58605;48.700;8.760;2022-12-13T13:24:15;-3.80;83.70
70947;DHT22;58605;48.700;8.760;2022-12-13T13:26:44;-3.80;84.10
70947;DHT22;58605;48.700;8.760;2022-12-13T13:29:32;-3.90;84.40
70947;DHT22;58605;48.700;8.760;2022-12-13T13:32:00;-3.90;84.80
70947;DHT22;58605;48.700;8.760;2022-12-13T13:34:29;-3.90;84.80
70947;DHT22;58605;48.700;8.760;2022-12-13T13:36:56;-3.80;85.10
70947;DHT22;58605;48.700;8.760;2022-12-13T13:39:56;-3.90;85.00
70947;DHT22;58605;48.700;8.760;2022-12-13T13:42:26;-3.90;85.00
70947;DHT22;58605;48.700;8.760;2022-12-13T13:47:40;-3.80;85.20
70947;DHT22;58605;48.700;8.760;2022-12-13T13:56:10;-3.80;85.00
70947;DHT22;58605;48.700;8.760;2022-12-13T13:59:31;-3.80;84.80
70947;DHT22;58605;48.700;8.760;2022-12-13T14:02:42;-3.80;84.90
70947;DHT22;58605;48.700;8.760;2022-12-13T14:08:33;-3.90;85.00
70947;DHT22;58605;48.700;8.760;2022-12-13T14:11:22;-3.90;85.30
70947;DHT22;58605;48.700;8.760;2022-12-13T14:17:39;-3.70;85.20
70947;DHT22;58605;48.700;8.760;2022-12-13T14:20:33;-3.70;84.80
70947;DHT22;58605;48.700;8.760;2022-12-13T14:23:06;-3.70;84.60
70947;DHT22;58605;48.700;8.760;2022-12-13T14:25:51;-3.70;84.60
70947;DHT22;58605;48.700;8.760;2022-12-13T14:28:27;-3.80;84.50
70947;DHT22;58605;48.700;8.760;2022-12-13T14:30:57;-3.80;84.50
70947;DHT22;58605;48.700;8.760;2022-12-13T14:33:25;-3.70;84.50
70947;DHT22;58605;48.700;8.760;2022-12-13T14:35:52;-3.70;84.40
70947;DHT22;58605;48.700;8.760;2022-12-13T14:38:21;-3.70;84.30
70947;DHT22;58605;48.700;8.760;2022-12-13T14:40:49;-3.80;84.50
70947;DHT22;58605;48.700;8.760;2022-12-13T14:43:22;-3.80;84.70
70947;DHT22;58605;48.700;8.760;2022-12-13T14:45:53;-3.70;84.90
70947;DHT22;58605;48.700;8.760;2022-12-13T14:48:20;-3.70;84.80
70947;DHT22;58605;48.700;8.760;2022-12-13T14:50:47;-3.70;84.70
70947;DHT22;58605;48.700;8.760;2022-12-13T14:53:22;-3.60;84.50
70947;DHT22;58605;48.700;8.760;2022-12-13T14:56:02;-3.60;84.30
70947;DHT22;58605;48.700;8.760;2022-12-13T14:58:29;-3.70;84.10
70947;DHT22;58605;48.700;8.760;2022-12-13T15:00:55;-3.70;84.10
70947;DHT22;58605;48.700;8.760;2022-12-13T15:03:23;-3.60;84.10
70947;DHT22;58605;48.700;8.760;2022-12-13T15:05:53;-3.60;84.10
70947;DHT22;58605;48.700;8.760;2022-12-13T15:08:21;-3.70;84.10
70947;DHT22;58605;48.700;8.760;2022-12-13T15:10:48;-3.60;83.90
70947;DHT22;58605;48.700;8.760;2022-12-13T15:13:25;-3.60;83.90
70947;DHT22;58605;48.700;8.760;2022-12-13T15:15:53;-3.70;83.90
70947;DHT22;58605;48.700;8.760;2022-12-13T15:18:22;-3.60;84.00
70947;DHT22;58605;48.700;8.760;2022-12-13T15:20:50;-3.60;84.00
70947;DHT22;58605;48.700;8.760;2022-12-13T15:23:22;-3.60;84.00
70947;DHT22;58605;48.700;8.760;2022-12-13T15:25:56;-3.60;83.90
70947;DHT22;58605;48.700;8.760;2022-12-13T15:28:25;-3.60;83.90
70947;DHT22;58605;48.700;8.760;2022-12-13T15:30:54;-3.60;83.90
70947;DHT22;58605;48.700;8.760;2022-12-13T15:33:22;-3.60;83.80
70947;DHT22;58605;48.700;8.760;2022-12-13T15:36:01;-3.60;83.80
70947;DHT22;58605;48.700;8.760;2022-12-13T15:38:29;-3.50;83.70
70947;DHT22;58605;48.700;8.760;2022-12-13T15:40:55;-3.50;83.50
70947;DHT22;58605;48.700;8.760;2022-12-13T15:43:28;-3.50;83.40
70947;DHT22;58605;48.700;8.760;2022-12-13T15:45:57;-3.50;83.40
70947;DHT22;58605;48.700;8.760;2022-12-13T15:48:26;-3.50;83.40
70947;DHT22;58605;48.700;8.760;2022-12-13T15:51:04;-3.50;83.50
70947;DHT22;58605;48.700;8.760;2022-12-13T15:53:32;-3.50;83.50
70947;DHT22;58605;48.700;8.760;2022-12-13T15:55:58;-3.50;83.40
70947;DHT22;58605;48.700;8.760;2022-12-13T15:58:26;-3.50;83.40
70947;DHT22;58605;48.700;8.760;2022-12-13T16:00:54;-3.50;83.20
70947;DHT22;58605;48.700;8.760;2022-12-13T16:03:22;-3.40;83.30
70947;DHT22;58605;48.700;8.760;2022-12-13T16:05:50;-3.40;83.20
70947;DHT22;58605;48.700;8.760;2022-12-13T16:08:24;-3.40;83.20
70947;DHT22;58605;48.700;8.760;2022-12-13T16:10:53;-3.30;83.20